Time;durP1;ratioP1;P1;durP2;ratioP2;P2;SDS_P1;SDS_P2;PMS_P1;PMS_P2;Temp;Humidity;BMP_temperature;BMP_pressure;BME280_temperature;BME280_humidity;BME280_pressure;Samples;Min_cycle;Max_cycle;Signal;HPM_P1;HPM_P2
2022/01/04 00:00:51;;;;;;;5.13;2.20;;;;;;;;;;6147672;23;20020;-48
2022/01/04 00:03:16;;;;;;;3.47;1.45;;;;;;;;;;6146264;23;20360;-44
2022/01/04 00:05:41;;;;;;;6.03;2.45;;;;;;;;;;6147685;23;20028;-46
2022/01/04 00:08:10;;;;;;;4.07;1.80;;;;;;;;;;6147141;23;20018;-46
2022/01/04 00:10:35;;;;;;;8.00;2.70;;;;;;;;;;6146744;23;20009;-45
2022/01/04 00:15:45;;;;;;;5.82;2.15;;;;;;;;;;6147415;23;20092;-49
2022/01/04 00:18:10;;;;;;;10.05;2.33;;;;;;;;;;6147095;23;20040;-50
2022/01/04 00:20:36;;;;;;;6.55;2.38;;;;;;;;;;6147292;23;20088;-45
2022/01/04 00:23:01;;;;;;;9.00;1.85;;;;;;;;;;6146901;23;20542;-45
2022/01/04 00:25:26;;;;;;;3.40;1.88;;;;;;;;;;6145069;23;20405;-45
2022/01/04 00:27:51;;;;;;;6.03;2.75;;;;;;;;;;6147072;23;20468;-45
2022/01/04 00:30:17;;;;;;;5.22;2.67;;;;;;;;;;6146696;23;20020;-44
2022/01/04 00:32:43;;;;;;;3.97;1.70;;;;;;;;;;6146785;23;20705;-45
2022/01/04 00:35:08;;;;;;;6.43;2.40;;;;;;;;;;6147170;23;20337;-46
2022/01/04 00:37:34;;;;;;;8.45;2.83;;;;;;;;;;6146262;23;21497;-46
2022/01/04 00:39:59;;;;;;;8.07;2.10;;;;;;;;;;6147803;23;20084;-44
2022/01/04 00:42:25;;;;;;;4.43;1.73;;;;;;;;;;6145589;23;20013;-45
2022/01/04 00:44:50;;;;;;;5.45;1.73;;;;;;;;;;6147644;23;20032;-45
2022/01/04 00:47:16;;;;;;;8.27;2.58;;;;;;;;;;6146009;23;20083;-45
2022/01/04 00:49:41;;;;;;;8.55;2.00;;;;;;;;;;6147399;23;20029;-48
2022/01/04 00:52:12;;;;;;;3.72;1.80;;;;;;;;;;6146467;23;20013;-45
2022/01/04 00:54:37;;;;;;;3.75;1.73;;;;;;;;;;6146460;23;20013;-46
2022/01/04 00:57:03;;;;;;;4.10;1.40;;;;;;;;;;6146606;23;20040;-45
2022/01/04 00:59:28;;;;;;;3.25;1.65;;;;;;;;;;6146206;23;20154;-45
2022/01/04 01:01:53;;;;;;;6.90;2.33;;;;;;;;;;6146609;23;20064;-46
2022/01/04 01:04:19;;;;;;;4.43;1.42;;;;;;;;;;6146550;23;20344;-46
2022/01/04 01:06:44;;;;;;;4.65;1.40;;;;;;;;;;6145994;23;20456;-48
2022/01/04 01:09:09;;;;;;;3.53;1.52;;;;;;;;;;6147050;23;20251;-44
2022/01/04 01:11:35;;;;;;;2.83;1.50;;;;;;;;;;6145977;23;20009;-45
2022/01/04 01:14:00;;;;;;;3.10;1.63;;;;;;;;;;6146923;23;20014;-46
2022/01/04 01:16:25;;;;;;;2.95;1.73;;;;;;;;;;6145873;23;20092;-45
2022/01/04 01:18:51;;;;;;;2.92;1.83;;;;;;;;;;6147272;23;20009;-47
2022/01/04 01:21:16;;;;;;;4.82;1.50;;;;;;;;;;6145644;23;20083;-44
2022/01/04 01:23:41;;;;;;;3.17;1.60;;;;;;;;;;6146393;23;20024;-46
2022/01/04 01:26:07;;;;;;;3.70;1.55;;;;;;;;;;6145752;23;20423;-45
2022/01/04 01:28:33;;;;;;;3.30;1.45;;;;;;;;;;6146083;23;20013;-47
2022/01/04 01:30:59;;;;;;;2.50;1.17;;;;;;;;;;6146075;23;20441;-46
2022/01/04 01:33:24;;;;;;;7.03;2.40;;;;;;;;;;6146550;23;20453;-46
2022/01/04 01:35:49;;;;;;;3.55;1.52;;;;;;;;;;6147015;23;20013;-48
2022/01/04 01:38:16;;;;;;;2.95;1.55;;;;;;;;;;6146010;23;20024;-45
2022/01/04 01:40:42;;;;;;;2.47;1.48;;;;;;;;;;6145418;23;20072;-45
2022/01/04 01:43:07;;;;;;;1.80;1.70;;;;;;;;;;6147080;23;20013;-44
2022/01/04 01:45:33;;;;;;;7.05;1.95;;;;;;;;;;6146089;23;20351;-44
2022/01/04 01:47:58;;;;;;;2.88;1.60;;;;;;;;;;6149218;23;20352;-46
2022/01/04 01:50:24;;;;;;;4.25;1.15;;;;;;;;;;6147696;23;20044;-46
2022/01/04 01:52:50;;;;;;;7.45;2.28;;;;;;;;;;6148860;23;20033;-47
2022/01/04 01:55:19;;;;;;;3.10;1.35;;;;;;;;;;6147465;23;20359;-45
2022/01/04 01:57:44;;;;;;;7.05;2.20;;;;;;;;;;6149457;23;20005;-49
2022/01/04 02:00:11;;;;;;;2.95;1.50;;;;;;;;;;6147883;23;20815;-44
2022/01/04 02:02:36;;;;;;;3.92;1.45;;;;;;;;;;6148130;23;20029;-46
2022/01/04 02:05:02;;;;;;;4.68;1.83;;;;;;;;;;6148004;23;20010;-43
2022/01/04 02:07:29;;;;;;;6.10;1.75;;;;;;;;;;6147997;23;20129;-45
2022/01/04 02:10:04;;;;;;;3.00;1.73;;;;;;;;;;6148047;23;20012;-45
2022/01/04 02:12:34;;;;;;;1.88;1.40;;;;;;;;;;6148105;23;20530;-45
2022/01/04 02:14:59;;;;;;;5.72;1.88;;;;;;;;;;6148318;23;20017;-45
2022/01/04 02:17:25;;;;;;;3.38;1.63;;;;;;;;;;6148090;23;20051;-44
2022/01/04 02:19:52;;;;;;;3.30;1.67;;;;;;;;;;6148171;23;20504;-46
2022/01/04 02:22:18;;;;;;;1.88;1.42;;;;;;;;;;6147456;23;20021;-44
2022/01/04 02:24:43;;;;;;;5.80;1.45;;;;;;;;;;6147468;23;20128;-45
2022/01/04 02:27:09;;;;;;;5.75;1.55;;;;;;;;;;6148548;23;20887;-46
2022/01/04 02:29:34;;;;;;;4.55;1.52;;;;;;;;;;6147304;23;20084;-44
2022/01/04 02:32:00;;;;;;;7.10;2.15;;;;;;;;;;6148136;23;20766;-45
2022/01/04 02:34:25;;;;;;;3.28;1.77;;;;;;;;;;6146417;23;20487;-46
2022/01/04 02:36:50;;;;;;;5.72;2.20;;;;;;;;;;6148267;23;20013;-46
2022/01/04 02:39:16;;;;;;;2.65;1.30;;;;;;;;;;6145575;23;20452;-44
2022/01/04 02:41:41;;;;;;;3.88;1.45;;;;;;;;;;6148164;23;20013;-46
2022/01/04 02:44:06;;;;;;;5.47;1.88;;;;;;;;;;6147512;23;20017;-46
2022/01/04 02:46:31;;;;;;;5.55;1.95;;;;;;;;;;6145717;23;20045;-45
2022/01/04 02:48:57;;;;;;;3.42;1.35;;;;;;;;;;6148433;23;20065;-45
2022/01/04 02:51:23;;;;;;;3.70;1.73;;;;;;;;;;6147525;23;20017;-45
2022/01/04 02:53:48;;;;;;;3.63;1.58;;;;;;;;;;6147148;23;20014;-44
2022/01/04 02:56:14;;;;;;;4.43;1.70;;;;;;;;;;6147782;23;20014;-46
2022/01/04 02:58:39;;;;;;;4.43;1.67;;;;;;;;;;6147855;23;20060;-45
2022/01/04 03:01:04;;;;;;;2.95;1.70;;;;;;;;;;6147987;23;20010;-44
2022/01/04 03:03:30;;;;;;;4.32;2.15;;;;;;;;;;6147220;23;20085;-45
2022/01/04 03:05:55;;;;;;;2.95;1.42;;;;;;;;;;6148303;23;20013;-47
2022/01/04 03:08:21;;;;;;;4.40;1.95;;;;;;;;;;6146833;23;20029;-45
2022/01/04 03:10:46;;;;;;;3.78;2.03;;;;;;;;;;6148092;23;20010;-46
2022/01/04 03:13:13;;;;;;;8.30;2.05;;;;;;;;;;6147108;23;20009;-45
2022/01/04 03:15:38;;;;;;;3.70;2.10;;;;;;;;;;6147081;23;20009;-44
2022/01/04 03:18:03;;;;;;;3.80;1.63;;;;;;;;;;6148131;23;20025;-45
2022/01/04 03:20:29;;;;;;;4.25;2.30;;;;;;;;;;6147013;23;20459;-46
2022/01/04 03:22:54;;;;;;;7.53;2.15;;;;;;;;;;6147980;23;20005;-48
2022/01/04 03:25:19;;;;;;;6.90;3.13;;;;;;;;;;6146130;23;20010;-45
2022/01/04 03:27:44;;;;;;;7.55;2.38;;;;;;;;;;6148245;23;20061;-46
2022/01/04 03:30:10;;;;;;;7.07;3.50;;;;;;;;;;6147417;23;20060;-44
2022/01/04 03:32:35;;;;;;;3.10;1.60;;;;;;;;;;6147467;23;20016;-46
2022/01/04 03:35:01;;;;;;;2.60;1.92;;;;;;;;;;6147696;23;20113;-45
2022/01/04 03:37:26;;;;;;;4.82;1.83;;;;;;;;;;6147407;23;20018;-45
2022/01/04 03:39:51;;;;;;;1.75;1.40;;;;;;;;;;6147306;23;20377;-45
2022/01/04 03:42:17;;;;;;;7.03;1.88;;;;;;;;;;6147007;23;20384;-45
2022/01/04 03:44:42;;;;;;;9.55;2.72;;;;;;;;;;6147329;23;20048;-46
2022/01/04 03:47:07;;;;;;;3.40;2.00;;;;;;;;;;6147006;23;20021;-44
2022/01/04 03:49:32;;;;;;;7.63;2.10;;;;;;;;;;6143471;23;20053;-46
2022/01/04 03:51:58;;;;;;;8.25;1.90;;;;;;;;;;6144657;23;20129;-44
2022/01/04 03:54:23;;;;;;;7.50;2.03;;;;;;;;;;6143518;23;20017;-45
2022/01/04 03:56:49;;;;;;;9.82;3.08;;;;;;;;;;6143910;23;20340;-45
2022/01/04 03:59:14;;;;;;;5.80;2.05;;;;;;;;;;6144094;23;20733;-43
2022/01/04 04:01:40;;;;;;;6.80;2.47;;;;;;;;;;6144553;23;20021;-44
2022/01/04 04:04:05;;;;;;;8.35;1.80;;;;;;;;;;6143903;23;20018;-45
2022/01/04 04:06:30;;;;;;;6.20;2.15;;;;;;;;;;6143797;23;20033;-44
2022/01/04 04:08:57;;;;;;;9.40;2.30;;;;;;;;;;6143974;23;20049;-44
2022/01/04 04:11:22;;;;;;;4.68;2.03;;;;;;;;;;6144362;23;20057;-45
2022/01/04 04:13:47;;;;;;;3.95;1.95;;;;;;;;;;6143825;23;20388;-44
2022/01/04 04:16:13;;;;;;;5.65;1.95;;;;;;;;;;6144147;23;20112;-45
2022/01/04 04:18:38;;;;;;;7.22;2.15;;;;;;;;;;6143669;23;20014;-45
2022/01/04 04:21:03;;;;;;;6.50;2.15;;;;;;;;;;6143602;23;20460;-45
2022/01/04 04:23:29;;;;;;;7.70;2.45;;;;;;;;;;6143538;23;20018;-46
2022/01/04 04:25:54;;;;;;;6.05;3.35;;;;;;;;;;6144422;23;20013;-46
2022/01/04 04:28:19;;;;;;;11.18;2.58;;;;;;;;;;6143414;23;20018;-44
2022/01/04 04:30:44;;;;;;;5.43;2.50;;;;;;;;;;6144190;23;20456;-45
2022/01/04 04:33:10;;;;;;;3.42;1.70;;;;;;;;;;6142427;23;20445;-46
2022/01/04 04:35:35;;;;;;;5.13;1.92;;;;;;;;;;6145297;23;20136;-44
2022/01/04 04:38:01;;;;;;;6.20;2.30;;;;;;;;;;6147354;23;20014;-44
2022/01/04 04:40:26;;;;;;;5.95;2.20;;;;;;;;;;6146584;23;20009;-44
2022/01/04 04:42:51;;;;;;;5.53;2.20;;;;;;;;;;6146827;23;20486;-44
2022/01/04 04:45:17;;;;;;;5.90;2.55;;;;;;;;;;6146619;23;20014;-46
2022/01/04 04:47:42;;;;;;;5.40;2.17;;;;;;;;;;6146921;23;20378;-44
2022/01/04 04:50:07;;;;;;;7.60;2.50;;;;;;;;;;6146934;23;20033;-45
2022/01/04 04:52:33;;;;;;;9.10;3.20;;;;;;;;;;6144738;23;20021;-47
2022/01/04 04:54:58;;;;;;;12.45;2.70;;;;;;;;;;6146507;23;20075;-45
2022/01/04 04:57:23;;;;;;;7.05;1.88;;;;;;;;;;6146628;23;20014;-45
2022/01/04 04:59:49;;;;;;;4.65;2.17;;;;;;;;;;6146806;23;20031;-45
2022/01/04 05:02:14;;;;;;;3.95;1.95;;;;;;;;;;6147039;23;20013;-44
2022/01/04 05:04:39;;;;;;;7.75;2.20;;;;;;;;;;6145780;23;20009;-45
2022/01/04 05:07:04;;;;;;;8.32;2.63;;;;;;;;;;6146447;23;20297;-48
2022/01/04 05:09:30;;;;;;;5.97;2.45;;;;;;;;;;6146272;23;20372;-44
2022/01/04 05:11:55;;;;;;;2.75;2.00;;;;;;;;;;6146594;23;20009;-46
2022/01/04 05:14:21;;;;;;;6.47;1.95;;;;;;;;;;6146188;23;20017;-46
2022/01/04 05:16:46;;;;;;;4.70;1.88;;;;;;;;;;6146335;23;20005;-47
2022/01/04 05:19:11;;;;;;;6.15;1.85;;;;;;;;;;6146444;23;20508;-45
2022/01/04 05:21:37;;;;;;;4.28;1.75;;;;;;;;;;6143546;23;20006;-45
2022/01/04 05:24:02;;;;;;;3.30;1.60;;;;;;;;;;6146626;23;20052;-44
2022/01/04 05:26:27;;;;;;;3.13;1.60;;;;;;;;;;6145437;23;20495;-46
2022/01/04 05:28:53;;;;;;;3.13;2.03;;;;;;;;;;6147280;23;20070;-46
2022/01/04 05:31:18;;;;;;;4.10;1.77;;;;;;;;;;6145403;23;20089;-46
2022/01/04 05:33:43;;;;;;;5.13;2.40;;;;;;;;;;6146951;23;20009;-45
2022/01/04 05:36:09;;;;;;;3.65;1.77;;;;;;;;;;6145870;23;20056;-45
2022/01/04 05:38:34;;;;;;;4.90;1.85;;;;;;;;;;6146575;23;20010;-46
2022/01/04 05:41:00;;;;;;;2.97;1.67;;;;;;;;;;6146129;23;20118;-45
2022/01/04 05:43:25;;;;;;;4.75;1.85;;;;;;;;;;6144371;23;20017;-45
2022/01/04 05:45:51;;;;;;;7.15;2.15;;;;;;;;;;6146021;23;20100;-46
2022/01/04 05:48:20;;;;;;;3.55;1.70;;;;;;;;;;6146588;23;20459;-47
2022/01/04 05:50:46;;;;;;;6.82;1.75;;;;;;;;;;6146353;23;20094;-45
2022/01/04 05:53:11;;;;;;;5.15;2.28;;;;;;;;;;6147042;23;20013;-45
2022/01/04 05:55:36;;;;;;;6.03;2.08;;;;;;;;;;6145545;23;20340;-45
2022/01/04 05:58:01;;;;;;;8.07;2.13;;;;;;;;;;6146442;23;20511;-45
2022/01/04 06:00:27;;;;;;;8.40;2.63;;;;;;;;;;6146486;23;20352;-44
2022/01/04 06:02:52;;;;;;;5.82;2.42;;;;;;;;;;6146330;23;20044;-45
2022/01/04 06:05:17;;;;;;;3.08;1.80;;;;;;;;;;6145433;23;20014;-45
2022/01/04 06:07:43;;;;;;;8.23;1.92;;;;;;;;;;6145762;23;20101;-44
2022/01/04 06:10:09;;;;;;;5.18;1.92;;;;;;;;;;6146705;23;20006;-44
2022/01/04 06:15:10;;;;;;;4.55;1.80;;;;;;;;;;6149453;23;20021;-44
2022/01/04 06:17:38;;;;;;;3.20;2.10;;;;;;;;;;6145705;23;20535;-45
2022/01/04 06:20:07;;;;;;;7.88;1.90;;;;;;;;;;6146631;23;20009;-44
2022/01/04 06:22:33;;;;;;;4.60;1.90;;;;;;;;;;6145529;23;20017;-50
2022/01/04 06:24:58;;;;;;;3.08;1.92;;;;;;;;;;6146417;23;20069;-46
2022/01/04 06:27:24;;;;;;;3.63;1.60;;;;;;;;;;6145898;23;20384;-49
2022/01/04 06:29:49;;;;;;;6.47;1.92;;;;;;;;;;6146343;23;20005;-46
2022/01/04 06:32:14;;;;;;;12.55;3.13;;;;;;;;;;6147058;23;20022;-45
2022/01/04 06:34:40;;;;;;;6.88;2.28;;;;;;;;;;6148349;23;20009;-48
2022/01/04 06:37:06;;;;;;;4.07;2.08;;;;;;;;;;6147117;23;20021;-48
2022/01/04 06:39:32;;;;;;;5.72;2.58;;;;;;;;;;6147664;23;20019;-47
2022/01/04 06:41:57;;;;;;;3.58;2.00;;;;;;;;;;6146481;23;20042;-45
2022/01/04 06:44:23;;;;;;;6.47;2.45;;;;;;;;;;6145535;23;20013;-45
2022/01/04 06:46:48;;;;;;;9.57;2.92;;;;;;;;;;6148219;23;20444;-46
2022/01/04 06:49:14;;;;;;;4.40;1.88;;;;;;;;;;6147512;23;20093;-46
2022/01/04 06:51:39;;;;;;;3.88;2.22;;;;;;;;;;6147981;23;20340;-47
2022/01/04 06:54:05;;;;;;;3.45;2.00;;;;;;;;;;6147366;23;20452;-47
2022/01/04 06:56:30;;;;;;;3.22;1.85;;;;;;;;;;6147207;23;20023;-47
2022/01/04 06:58:56;;;;;;;3.25;1.70;;;;;;;;;;6148252;23;20088;-44
2022/01/04 07:01:22;;;;;;;3.38;1.90;;;;;;;;;;6147131;23;20017;-47
2022/01/04 07:03:47;;;;;;;6.15;1.88;;;;;;;;;;6148274;23;20010;-46
2022/01/04 07:06:12;;;;;;;6.00;1.98;;;;;;;;;;6147171;23;20052;-46
2022/01/04 07:08:38;;;;;;;2.25;1.60;;;;;;;;;;6147714;23;20017;-45
2022/01/04 07:11:03;;;;;;;4.00;2.20;;;;;;;;;;6147397;23;20010;-45
2022/01/04 07:13:28;;;;;;;2.10;1.67;;;;;;;;;;6147618;23;20334;-44
2022/01/04 07:15:53;;;;;;;3.60;1.88;;;;;;;;;;6147842;23;20444;-47
2022/01/04 07:18:20;;;;;;;2.97;2.08;;;;;;;;;;6147004;23;20040;-46
2022/01/04 07:20:45;;;;;;;2.38;1.70;;;;;;;;;;6147542;23;20052;-45
2022/01/04 07:23:10;;;;;;;3.35;1.70;;;;;;;;;;6147963;23;20014;-47
2022/01/04 07:25:36;;;;;;;2.90;2.35;;;;;;;;;;6146727;23;20010;-46
2022/01/04 07:28:01;;;;;;;1.35;1.25;;;;;;;;;;6148230;23;20013;-45
2022/01/04 07:30:26;;;;;;;1.33;1.23;;;;;;;;;;6144285;23;20010;-47
2022/01/04 07:32:52;;;;;;;2.45;1.50;;;;;;;;;;6148030;23;20017;-44
2022/01/04 07:35:17;;;;;;;1.67;1.58;;;;;;;;;;6146929;23;20024;-45
2022/01/04 07:37:42;;;;;;;1.85;1.75;;;;;;;;;;6147717;23;20153;-43
2022/01/04 07:40:08;;;;;;;1.55;1.45;;;;;;;;;;6146979;23;20013;-45
2022/01/04 07:42:33;;;;;;;2.58;2.38;;;;;;;;;;6146484;23;20413;-46
2022/01/04 07:44:58;;;;;;;2.35;2.15;;;;;;;;;;6146844;23;20018;-44
2022/01/04 07:47:24;;;;;;;2.13;2.00;;;;;;;;;;6146887;23;20357;-44
2022/01/04 07:49:49;;;;;;;2.33;2.15;;;;;;;;;;6145672;23;20067;-47
2022/01/04 07:52:14;;;;;;;3.35;2.88;;;;;;;;;;6146732;23;20006;-44
2022/01/04 07:54:41;;;;;;;2.42;2.22;;;;;;;;;;6147573;23;20020;-46
2022/01/04 07:57:06;;;;;;;3.17;2.92;;;;;;;;;;6147728;23;20013;-43
2022/01/04 07:59:34;;;;;;;2.65;2.40;;;;;;;;;;6144629;23;20012;-44
2022/01/04 08:01:59;;;;;;;2.80;2.50;;;;;;;;;;6147693;23;20009;-44
2022/01/04 08:04:25;;;;;;;3.08;2.80;;;;;;;;;;6146455;23;20016;-44
2022/01/04 08:06:50;;;;;;;2.28;2.08;;;;;;;;;;6147452;23;20018;-46
2022/01/04 08:09:15;;;;;;;1.60;1.35;;;;;;;;;;6146718;23;20028;-44
2022/01/04 08:11:41;;;;;;;1.38;1.27;;;;;;;;;;6147880;23;20082;-44
2022/01/04 08:14:06;;;;;;;1.30;1.10;;;;;;;;;;6147297;23;20009;-43
2022/01/04 08:16:32;;;;;;;3.42;0.90;;;;;;;;;;6146414;23;20013;-43
2022/01/04 08:18:57;;;;;;;0.90;0.90;;;;;;;;;;6147371;23;20005;-44
2022/01/04 08:21:22;;;;;;;0.73;0.73;;;;;;;;;;6145920;23;20037;-49
2022/01/04 08:23:47;;;;;;;1.00;1.00;;;;;;;;;;6146805;23;20009;-45
2022/01/04 08:26:13;;;;;;;0.70;0.70;;;;;;;;;;6142649;23;20025;-49
2022/01/04 08:28:38;;;;;;;0.50;0.50;;;;;;;;;;6143302;23;20013;-46
2022/01/04 08:31:03;;;;;;;0.77;0.77;;;;;;;;;;6144393;23;20024;-44
2022/01/04 08:33:29;;;;;;;0.73;0.50;;;;;;;;;;6143337;23;20018;-45
2022/01/04 08:35:54;;;;;;;0.60;0.60;;;;;;;;;;6144795;23;20052;-46
2022/01/04 08:38:19;;;;;;;0.73;0.73;;;;;;;;;;6142892;23;20010;-46
2022/01/04 08:40:45;;;;;;;0.50;0.50;;;;;;;;;;6144623;23;20061;-45
2022/01/04 08:43:10;;;;;;;0.55;0.55;;;;;;;;;;6143750;23;20013;-47
2022/01/04 08:45:35;;;;;;;0.60;0.60;;;;;;;;;;6142917;23;20014;-46
2022/01/04 08:48:01;;;;;;;0.43;0.43;;;;;;;;;;6143900;23;20018;-47
2022/01/04 08:50:29;;;;;;;0.60;0.60;;;;;;;;;;6142239;23;20467;-47
2022/01/04 08:52:56;;;;;;;0.30;0.30;;;;;;;;;;6143968;23;20642;-47
2022/01/04 08:55:21;;;;;;;0.40;0.40;;;;;;;;;;6143345;23;20013;-48
2022/01/04 08:57:47;;;;;;;0.30;0.30;;;;;;;;;;6143831;23;20013;-48
2022/01/04 09:00:12;;;;;;;0.22;0.22;;;;;;;;;;6142870;23;20029;-48
2022/01/04 09:02:37;;;;;;;0.40;0.40;;;;;;;;;;6134941;23;20164;-49
2022/01/04 09:05:03;;;;;;;0.43;0.43;;;;;;;;;;6140980;23;20010;-45
2022/01/04 09:07:29;;;;;;;0.40;0.40;;;;;;;;;;6138253;23;20033;-46
2022/01/04 09:09:54;;;;;;;0.43;0.43;;;;;;;;;;6141135;23;20005;-46
2022/01/04 09:12:22;;;;;;;0.45;0.45;;;;;;;;;;6138419;23;20105;-46
2022/01/04 09:20:03;;;;;;;0.30;0.30;;;;;;;;;;6139978;23;20053;-45
2022/01/04 09:22:28;;;;;;;0.32;0.32;;;;;;;;;;6140485;23;20009;-47
2022/01/04 09:24:54;;;;;;;0.30;0.30;;;;;;;;;;6138783;23;20508;-48
2022/01/04 09:27:19;;;;;;;0.40;0.40;;;;;;;;;;6140674;23;20022;-47
2022/01/04 09:29:44;;;;;;;0.50;0.50;;;;;;;;;;6139545;23;20033;-46
2022/01/04 09:32:13;;;;;;;0.30;0.30;;;;;;;;;;6138257;23;20063;-45
2022/01/04 09:34:38;;;;;;;0.50;0.50;;;;;;;;;;6138724;23;20449;-47
2022/01/04 09:37:04;;;;;;;0.50;0.50;;;;;;;;;;6140538;23;20006;-44
2022/01/04 09:39:29;;;;;;;0.40;0.40;;;;;;;;;;6138536;23;20110;-44
2022/01/04 09:41:59;;;;;;;0.40;0.40;;;;;;;;;;6140827;23;20005;-44
2022/01/04 09:44:25;;;;;;;0.40;0.40;;;;;;;;;;6138856;23;20028;-45
2022/01/04 09:46:50;;;;;;;0.47;0.40;;;;;;;;;;6139647;23;20021;-44
2022/01/04 09:49:16;;;;;;;0.35;0.35;;;;;;;;;;6140315;23;20093;-45
2022/01/04 09:51:42;;;;;;;0.20;0.20;;;;;;;;;;6138129;23;20057;-44
2022/01/04 09:54:08;;;;;;;1.35;0.45;;;;;;;;;;6140959;23;20013;-45
2022/01/04 09:56:33;;;;;;;0.38;0.38;;;;;;;;;;6140015;23;20408;-46
2022/01/04 09:58:59;;;;;;;0.40;0.40;;;;;;;;;;6140761;23;20020;-45
2022/01/04 10:01:32;;;;;;;1.27;0.50;;;;;;;;;;6138366;23;20053;-44
2022/01/04 10:03:58;;;;;;;0.47;0.47;;;;;;;;;;6140214;23;20020;-44
2022/01/04 10:06:23;;;;;;;0.40;0.40;;;;;;;;;;6139178;23;20026;-45
2022/01/04 10:08:50;;;;;;;0.70;0.45;;;;;;;;;;6143142;23;20029;-46
2022/01/04 10:11:15;;;;;;;0.40;0.40;;;;;;;;;;6140830;23;20021;-46
2022/01/04 10:13:41;;;;;;;0.30;0.30;;;;;;;;;;6142408;23;20010;-45
2022/01/04 10:16:16;;;;;;;0.40;0.40;;;;;;;;;;6141271;23;20025;-46
2022/01/04 10:18:45;;;;;;;0.95;0.50;;;;;;;;;;6140106;23;20009;-46
2022/01/04 10:21:12;;;;;;;;;;;;;;;;;;6143085;23;20016;-45
2022/01/04 10:23:44;;;;;;;0.50;0.50;;;;;;;;;;6141046;23;19981;-47
2022/01/04 10:26:09;;;;;;;1.00;0.50;;;;;;;;;;6140539;23;20045;-46
2022/01/04 10:28:42;;;;;;;0.40;0.40;;;;;;;;;;6141881;23;20018;-48
2022/01/04 10:31:18;;;;;;;0.40;0.40;;;;;;;;;;6141630;23;20029;-49
2022/01/04 10:33:43;;;;;;;0.82;0.30;;;;;;;;;;6141680;23;20009;-48
2022/01/04 10:36:12;;;;;;;0.35;0.35;;;;;;;;;;6140458;23;20001;-45
2022/01/04 10:38:42;;;;;;;0.22;0.22;;;;;;;;;;6142591;23;20005;-47
2022/01/04 10:41:26;;;;;;;0.32;0.32;;;;;;;;;;6141069;23;20013;-44
2022/01/04 10:43:55;;;;;;;0.63;0.50;;;;;;;;;;6142206;23;20834;-44
2022/01/04 10:46:30;;;;;;;0.30;0.30;;;;;;;;;;6138935;23;20025;-44
2022/01/04 10:48:55;;;;;;;0.35;0.35;;;;;;;;;;6141799;23;20001;-48
2022/01/04 10:51:21;;;;;;;0.30;0.30;;;;;;;;;;6140605;23;20013;-45
2022/01/04 10:53:51;;;;;;;0.45;0.40;;;;;;;;;;6141344;23;20036;-46
2022/01/04 10:56:23;;;;;;;0.47;0.47;;;;;;;;;;6140882;23;20049;-46
2022/01/04 10:58:50;;;;;;;0.30;0.30;;;;;;;;;;6140618;23;20344;-46
2022/01/04 11:01:17;;;;;;;0.40;0.40;;;;;;;;;;6137777;23;20037;-48
2022/01/04 11:03:43;;;;;;;0.30;0.30;;;;;;;;;;6138394;23;20052;-45
2022/01/04 11:06:13;;;;;;;0.30;0.30;;;;;;;;;;6139473;23;20029;-46
2022/01/04 11:08:38;;;;;;;0.40;0.40;;;;;;;;;;6141576;23;20601;-45
2022/01/04 11:11:04;;;;;;;0.70;0.43;;;;;;;;;;6140305;23;20025;-46
2022/01/04 11:13:29;;;;;;;0.32;0.32;;;;;;;;;;6139903;23;20475;-44
2022/01/04 11:15:55;;;;;;;0.55;0.50;;;;;;;;;;6140505;23;20373;-44
2022/01/04 11:18:21;;;;;;;0.88;0.40;;;;;;;;;;6140368;23;20017;-44
2022/01/04 11:20:47;;;;;;;0.70;0.70;;;;;;;;;;6140900;23;20006;-44
2022/01/04 11:23:13;;;;;;;0.80;0.80;;;;;;;;;;6140719;23;20013;-45
2022/01/04 11:25:40;;;;;;;2.05;1.48;;;;;;;;;;6140916;23;20013;-45
2022/01/04 11:28:07;;;;;;;1.13;0.90;;;;;;;;;;6139436;23;20093;-45
2022/01/04 11:30:36;;;;;;;0.90;0.55;;;;;;;;;;6140176;23;20006;-44
2022/01/04 11:33:09;;;;;;;1.60;0.63;;;;;;;;;;6141263;23;20014;-45
2022/01/04 11:35:34;;;;;;;2.08;0.82;;;;;;;;;;6141240;23;20017;-45
2022/01/04 11:38:00;;;;;;;0.50;0.50;;;;;;;;;;6140512;23;20356;-44
2022/01/04 11:40:31;;;;;;;0.52;0.52;;;;;;;;;;6142351;23;20068;-44
2022/01/04 11:42:56;;;;;;;0.70;0.70;;;;;;;;;;6140472;23;20161;-44
2022/01/04 11:45:38;;;;;;;0.95;0.95;;;;;;;;;;6140946;23;20016;-44
2022/01/04 11:48:03;;;;;;;1.35;0.90;;;;;;;;;;6140633;23;20024;-45
2022/01/04 11:50:35;;;;;;;0.70;0.52;;;;;;;;;;6141471;23;20009;-45
2022/01/04 11:53:06;;;;;;;1.77;0.90;;;;;;;;;;6140834;23;20006;-48
2022/01/04 11:55:36;;;;;;;0.90;0.90;;;;;;;;;;6140519;23;20060;-44
2022/01/04 11:58:03;;;;;;;0.85;0.85;;;;;;;;;;6140673;23;20006;-45
2022/01/04 12:00:30;;;;;;;1.27;1.23;;;;;;;;;;6139656;23;20017;-44
2022/01/04 12:03:03;;;;;;;0.80;0.80;;;;;;;;;;6140703;23;20069;-44
2022/01/04 12:05:28;;;;;;;0.70;0.70;;;;;;;;;;6139388;23;20020;-47
2022/01/04 12:07:55;;;;;;;0.70;0.70;;;;;;;;;;6141518;23;20052;-44
2022/01/04 12:10:20;;;;;;;0.88;0.88;;;;;;;;;;6139984;23;20010;-44
2022/01/04 12:12:59;;;;;;;0.77;0.60;;;;;;;;;;6140851;23;20474;-44
2022/01/04 12:15:50;;;;;;;0.50;0.50;;;;;;;;;;6139282;23;20115;-48
2022/01/04 12:18:37;;;;;;;2.30;0.70;;;;;;;;;;6134698;23;20048;-47
2022/01/04 12:21:03;;;;;;;0.40;0.40;;;;;;;;;;6140062;23;20101;-45
2022/01/04 12:23:37;;;;;;;3.28;0.88;;;;;;;;;;6138088;23;20052;-45
2022/01/04 12:26:06;;;;;;;0.50;0.50;;;;;;;;;;6141024;23;20018;-44
2022/01/04 12:28:32;;;;;;;0.68;0.68;;;;;;;;;;6140760;23;20037;-44
2022/01/04 12:31:24;;;;;;;1.33;0.50;;;;;;;;;;6140861;23;20092;-44
2022/01/04 12:34:02;;;;;;;0.75;0.60;;;;;;;;;;6133688;23;20013;-45
2022/01/04 12:36:35;;;;;;;0.50;0.50;;;;;;;;;;6140907;23;20017;-45
2022/01/04 12:39:00;;;;;;;1.00;0.60;;;;;;;;;;6142156;23;20009;-45
2022/01/04 12:41:26;;;;;;;3.15;0.68;;;;;;;;;;6139811;23;20011;-46
2022/01/04 12:43:51;;;;;;;1.05;0.50;;;;;;;;;;6141600;23;20056;-45
2022/01/04 12:46:28;;;;;;;1.95;0.82;;;;;;;;;;6138074;23;20025;-44
2022/01/04 12:48:59;;;;;;;0.75;0.70;;;;;;;;;;6140879;23;20012;-44
2022/01/04 12:51:29;;;;;;;0.70;0.60;;;;;;;;;;6138522;23;20014;-46
2022/01/04 12:53:57;;;;;;;0.95;0.75;;;;;;;;;;6141994;23;20012;-44
2022/01/04 12:56:22;;;;;;;2.58;1.15;;;;;;;;;;6140939;23;20096;-46
2022/01/04 12:58:48;;;;;;;1.38;0.70;;;;;;;;;;6140923;23;20033;-47
2022/01/04 13:01:13;;;;;;;0.50;0.50;;;;;;;;;;6137472;23;20010;-45
2022/01/04 13:03:39;;;;;;;3.85;1.23;;;;;;;;;;6135563;23;20037;-45
2022/01/04 13:06:04;;;;;;;0.50;0.40;;;;;;;;;;6137923;23;20022;-47
2022/01/04 13:08:33;;;;;;;2.47;0.88;;;;;;;;;;6138146;23;20837;-43
2022/01/04 13:11:05;;;;;;;1.05;0.68;;;;;;;;;;6137133;23;20029;-43
2022/01/04 13:13:31;;;;;;;2.13;1.13;;;;;;;;;;6136504;23;20013;-43
2022/01/04 13:16:16;;;;;;;1.48;1.08;;;;;;;;;;6138180;23;20017;-46
2022/01/04 13:18:41;;;;;;;0.77;0.70;;;;;;;;;;6137687;23;20335;-45
2022/01/04 13:21:06;;;;;;;1.10;0.60;;;;;;;;;;6138044;23;20766;-45
2022/01/04 13:23:42;;;;;;;3.22;0.68;;;;;;;;;;6136765;23;20018;-45
2022/01/04 13:26:09;;;;;;;1.65;0.63;;;;;;;;;;6137793;23;20359;-47
2022/01/04 13:28:35;;;;;;;1.23;0.85;;;;;;;;;;6137460;23;20088;-44
2022/01/04 13:31:01;;;;;;;2.03;0.93;;;;;;;;;;6137465;23;20040;-44
2022/01/04 13:33:26;;;;;;;1.55;0.98;;;;;;;;;;6137261;23;20021;-45
2022/01/04 13:35:53;;;;;;;1.73;1.00;;;;;;;;;;6136081;23;20013;-44
2022/01/04 13:38:21;;;;;;;2.55;0.68;;;;;;;;;;6138537;23;20392;-44
2022/01/04 13:40:47;;;;;;;1.92;0.77;;;;;;;;;;6139761;23;20010;-46
2022/01/04 13:43:29;;;;;;;1.33;0.95;;;;;;;;;;6137714;23;20013;-44
2022/01/04 13:46:02;;;;;;;1.05;0.80;;;;;;;;;;6137806;23;20022;-45
2022/01/04 13:48:28;;;;;;;2.47;0.88;;;;;;;;;;6140047;23;20014;-46
2022/01/04 13:50:54;;;;;;;3.05;0.93;;;;;;;;;;6140121;23;20092;-46
2022/01/04 13:53:20;;;;;;;2.25;0.95;;;;;;;;;;6139644;23;20063;-45
2022/01/04 13:55:45;;;;;;;2.42;1.10;;;;;;;;;;6139392;23;20017;-43
2022/01/04 13:58:11;;;;;;;1.23;0.98;;;;;;;;;;6140686;23;20016;-43
2022/01/04 14:00:38;;;;;;;3.20;1.25;;;;;;;;;;6139528;23;20072;-43
2022/01/04 14:03:23;;;;;;;1.80;0.90;;;;;;;;;;6139499;23;20092;-43
2022/01/04 14:05:49;;;;;;;2.15;1.35;;;;;;;;;;6138854;23;20040;-45
2022/01/04 14:08:15;;;;;;;2.53;0.95;;;;;;;;;;6139271;23;20548;-45
2022/01/04 14:10:47;;;;;;;2.85;1.00;;;;;;;;;;6139571;23;20013;-45
2022/01/04 14:13:31;;;;;;;1.77;0.93;;;;;;;;;;6138978;23;20068;-44
2022/01/04 14:16:13;;;;;;;1.17;0.90;;;;;;;;;;6139284;23;20500;-44
2022/01/04 14:18:57;;;;;;;2.53;0.88;;;;;;;;;;6139757;23;20006;-45
2022/01/04 14:21:43;;;;;;;1.60;1.17;;;;;;;;;;6140434;23;20053;-43
2022/01/04 14:24:27;;;;;;;0.95;0.80;;;;;;;;;;6140128;23;20014;-42
2022/01/04 14:26:52;;;;;;;4.57;1.27;;;;;;;;;;6138947;23;20024;-44
2022/01/04 14:29:26;;;;;;;2.45;0.90;;;;;;;;;;6140519;23;20048;-44
2022/01/04 14:31:54;;;;;;;0.60;0.60;;;;;;;;;;6140774;23;20108;-45
2022/01/04 14:34:19;;;;;;;1.27;1.08;;;;;;;;;;6137015;23;20009;-45
2022/01/04 14:36:44;;;;;;;2.75;1.27;;;;;;;;;;6140600;23;20077;-46
2022/01/04 14:39:10;;;;;;;1.38;0.85;;;;;;;;;;6140767;23;20037;-45
2022/01/04 14:41:35;;;;;;;1.45;0.75;;;;;;;;;;6139824;23;20353;-47
2022/01/04 14:44:00;;;;;;;1.58;1.00;;;;;;;;;;6140052;23;20731;-43
2022/01/04 14:46:25;;;;;;;2.67;1.27;;;;;;;;;;6138664;23;20072;-46
2022/01/04 14:48:50;;;;;;;1.80;0.93;;;;;;;;;;6141468;23;20013;-46
2022/01/04 14:51:16;;;;;;;1.48;0.80;;;;;;;;;;6138373;23;20045;-46